createdAt,value
2019-01-03T00:00:56.710Z,102468.41
2019-01-03T00:03:54.170Z,102460.56
2019-01-03T00:06:41.295Z,102460.16
2019-01-03T00:09:41.218Z,102469.64
2019-01-03T00:12:33.445Z,102470.02
2019-01-03T00:15:20.562Z,102471.55
2019-01-03T00:18:07.789Z,102467.28
2019-01-03T00:20:55.115Z,102471.51
2019-01-03T00:23:49.599Z,102474.25
2019-01-03T00:26:53.724Z,102470.02
2019-01-03T00:29:39.505Z,102474.31
2019-01-03T00:32:26.832Z,102476.25
2019-01-03T00:35:24.603Z,102476.45
2019-01-03T00:38:17.023Z,102477.22
2019-01-03T00:41:17.605Z,102480.08
2019-01-03T00:44:11.895Z,102484.03
2019-01-03T00:47:00.124Z,102484.41
2019-01-03T00:49:58.421Z,102479.29
2019-01-03T00:52:46.934Z,102484.10
2019-01-03T00:55:44.298Z,102486.58
2019-01-03T00:58:38.704Z,102484.42
2019-01-03T01:01:25.814Z,102483.98
2019-01-03T01:04:14.331Z,102493.33
2019-01-03T01:07:14.515Z,102495.47
2019-01-03T01:09:59.984Z,102489.69
2019-01-03T01:12:57.282Z,102498.45
2019-01-03T01:15:44.344Z,102498.28
2019-01-03T01:18:35.680Z,102499.08
2019-01-03T01:21:36.388Z,102492.45
2019-01-03T01:24:32.718Z,102498.09
2019-01-03T01:27:11.235Z,102497.80
2019-01-03T01:29:58.758Z,102502.78
2019-01-03T01:32:53.255Z,102502.30
2019-01-03T01:35:50.925Z,102511.61
2019-01-03T01:38:39.472Z,102511.02
2019-01-03T01:41:31.100Z,102510.31
2019-01-03T01:44:18.314Z,102512.53
2019-01-03T01:47:12.816Z,102510.38
2019-01-03T01:50:16.725Z,102509.19
2019-01-03T01:53:05.225Z,102509.98
2019-01-03T01:55:55.450Z,102506.38
2019-01-03T01:58:42.410Z,102513.23
2019-01-03T02:01:34.926Z,102515.06
2019-01-03T02:04:32.582Z,102515.42
2019-01-03T02:07:30.406Z,102518.98
2019-01-03T02:10:27.919Z,102516.73
2019-01-03T02:13:25.169Z,102522.22
2019-01-03T02:16:13.729Z,102527.36
2019-01-03T02:19:01.391Z,102533.23
2019-01-03T02:21:55.837Z,102525.49
2019-01-03T02:24:47.158Z,102522.80
2019-01-03T02:27:34.174Z,102527.16
2019-01-03T02:30:41.476Z,102527.29
2019-01-03T02:33:30.026Z,102523.41
2019-01-03T02:36:21.847Z,102526.91
2019-01-03T02:39:09.128Z,102524.17
2019-01-03T02:41:50.146Z,102512.71
2019-01-03T02:44:44.733Z,102514.48
2019-01-03T02:47:32.265Z,102509.54
2019-01-03T02:50:27.489Z,102512.91
2019-01-03T02:53:18.818Z,102504.58
2019-01-03T02:56:05.600Z,102504.89
2019-01-03T02:58:54.158Z,102503.72
2019-01-03T03:01:55.914Z,102494.89
2019-01-03T03:04:44.569Z,102494.33
2019-01-03T03:07:27.798Z,102488.55
2019-01-03T03:10:07.951Z,102487.41
2019-01-03T03:12:55.174Z,102472.86
2019-01-03T03:15:43.631Z,102479.02
2019-01-03T03:18:32.178Z,102473.41
2019-01-03T03:21:20.732Z,102469.05
2019-01-03T03:23:58.225Z,102471.55
2019-01-03T03:26:52.076Z,102469.81
2019-01-03T03:29:43.837Z,102465.94
2019-01-03T03:32:37.393Z,102460.42
2019-01-03T03:35:43.048Z,102460.56
2019-01-03T03:38:30.597Z,102454.75
2019-01-03T03:41:37.062Z,102454.47
2019-01-03T03:44:25.505Z,102448.72
2019-01-03T03:47:22.755Z,102442.59
2019-01-03T03:50:11.406Z,102427.33
2019-01-03T03:52:58.627Z,102423.45
2019-01-03T03:55:49.939Z,102407.80
2019-01-03T03:58:54.195Z,102400.53
2019-01-03T04:01:41.781Z,102405.92
2019-01-03T04:04:30.458Z,102414.33
2019-01-03T04:07:31.181Z,102430.59
2019-01-03T04:10:31.899Z,102429.42
2019-01-03T04:13:19.006Z,102422.94
2019-01-03T04:16:25.388Z,102420.57
2019-01-03T04:19:12.343Z,102418.58
2019-01-03T04:22:00.652Z,102428.02
2019-01-03T04:24:48.928Z,102430.70
2019-01-03T04:27:36.640Z,102426.83
2019-01-03T04:30:23.769Z,102418.45
2019-01-03T04:33:11.087Z,102416.31
2019-01-03T04:35:58.427Z,102415.77
2019-01-03T04:38:52.806Z,102421.27
2019-01-03T04:41:43.871Z,102412.76
2019-01-03T04:44:35.021Z,102414.38
2019-01-03T04:47:38.538Z,102419.13
2019-01-03T04:50:25.552Z,102416.67
2019-01-03T04:53:22.877Z,102415.17
2019-01-03T04:56:09.585Z,102422.55
2019-01-03T04:58:57.891Z,102427.98
2019-01-03T05:02:04.800Z,102427.83
2019-01-03T05:04:53.110Z,102424.75
2019-01-03T05:07:53.301Z,102424.67
2019-01-03T05:10:47.637Z,102421.93
2019-01-03T05:13:35.990Z,102417.68
2019-01-03T05:16:22.961Z,102426.22
2019-01-03T05:19:09.932Z,102421.38
2019-01-03T05:22:07.434Z,102414.38
2019-01-03T05:25:01.932Z,102410.61
2019-01-03T05:27:54.570Z,102410.56
2019-01-03T05:30:58.379Z,102411.02
2019-01-03T05:33:56.665Z,102406.47
2019-01-03T05:36:45.722Z,102405.16
2019-01-03T05:39:46.777Z,102398.69
2019-01-03T05:42:53.449Z,102401.36
2019-01-03T05:46:00.337Z,102406.62
2019-01-03T05:48:49.904Z,102402.48
2019-01-03T05:51:37.336Z,102401.77
2019-01-03T05:54:24.454Z,102408.28
2019-01-03T05:57:12.799Z,102399.06
2019-01-03T06:00:01.345Z,102407.05
2019-01-03T06:02:49.897Z,102419.27
2019-01-03T06:05:37.117Z,102418.41
2019-01-03T06:08:42.057Z,102416.20
2019-01-03T06:11:29.481Z,102410.45
2019-01-03T06:14:23.892Z,102419.13
2019-01-03T06:17:15.582Z,102418.75
2019-01-03T06:20:22.498Z,102423.43
2019-01-03T06:23:09.821Z,102422.88
2019-01-03T06:25:57.228Z,102421.44
2019-01-03T06:28:44.345Z,102413.89
2019-01-03T06:31:32.900Z,102410.75
2019-01-03T06:34:24.463Z,102418.88
2019-01-03T06:37:11.946Z,102415.70
2019-01-03T06:39:59.068Z,102415.17
2019-01-03T06:42:51.725Z,102410.74
2019-01-03T06:45:40.389Z,102414.73
2019-01-03T06:48:31.893Z,102428.98
2019-01-03T06:51:32.521Z,102433.45
2019-01-03T06:54:21.072Z,102430.93
2019-01-03T06:57:20.180Z,102427.88
2019-01-03T07:00:17.632Z,102432.97
2019-01-03T07:02:59.836Z,102427.92
2019-01-03T07:06:00.884Z,102437.16
2019-01-03T07:08:48.308Z,102434.79
2019-01-03T07:11:36.347Z,102436.22
2019-01-03T07:14:23.775Z,102437.53
2019-01-03T07:17:24.408Z,102435.95
2019-01-03T07:20:15.729Z,102444.53
2019-01-03T07:23:04.285Z,102449.27
2019-01-03T07:25:52.849Z,102446.14
2019-01-03T07:28:59.621Z,102445.99
2019-01-03T07:31:57.501Z,102454.73
2019-01-03T07:34:55.161Z,102461.97
2019-01-03T07:37:43.594Z,102456.45
2019-01-03T07:40:38.005Z,102455.55
2019-01-03T07:43:25.210Z,102454.39
2019-01-03T07:46:10.894Z,102462.80
2019-01-03T07:48:58.315Z,102464.05
2019-01-03T07:51:45.439Z,102466.54
2019-01-03T07:54:33.108Z,102471.31
2019-01-03T07:57:36.892Z,102469.85
2019-01-03T08:00:26.038Z,102475.87
2019-01-03T08:03:17.565Z,102475.92
2019-01-03T08:06:14.897Z,102467.45
2019-01-03T08:09:01.933Z,102473.17
2019-01-03T08:11:48.980Z,102466.41
2019-01-03T08:14:49.489Z,102470.82
2019-01-03T08:17:44.490Z,102473.67
2019-01-03T08:20:42.356Z,102457.77
2019-01-03T08:23:33.577Z,102452.87
2019-01-03T08:26:22.241Z,102448.83
2019-01-03T08:29:13.748Z,102458.05
2019-01-03T08:32:01.071Z,102464.37
2019-01-03T08:34:52.386Z,102463.62
2019-01-03T08:37:54.147Z,102479.55
2019-01-03T08:40:41.489Z,102478.22
2019-01-03T08:43:33.195Z,102487.95
2019-01-03T08:46:30.979Z,102488.92
2019-01-03T08:49:22.183Z,102480.73
2019-01-03T08:52:09.304Z,102480.53
2019-01-03T08:54:58.163Z,102483.89
2019-01-03T08:57:52.855Z,102488.42
2019-01-03T09:00:47.666Z,102485.02
2019-01-03T09:03:36.202Z,102488.97
2019-01-03T09:06:23.319Z,102489.12
2019-01-03T09:09:11.986Z,102482.69
2019-01-03T09:11:59.225Z,102491.31
2019-01-03T09:14:56.659Z,102487.15
2019-01-03T09:17:41.421Z,102484.24
2019-01-03T09:20:28.231Z,102487.34
2019-01-03T09:23:15.561Z,102495.73
2019-01-03T09:25:59.092Z,102490.41
2019-01-03T09:28:46.513Z,102488.41
2019-01-03T09:31:33.733Z,102483.38
2019-01-03T09:34:28.532Z,102475.57
2019-01-03T09:37:26.918Z,102467.59
2019-01-03T09:40:22.224Z,102463.11
2019-01-03T09:43:09.457Z,102469.52
2019-01-03T09:45:44.244Z,102471.44
2019-01-03T09:48:10.440Z,102472.33
2019-01-03T09:50:40.117Z,102481.22
2019-01-03T09:53:09.847Z,102484.35
2019-01-03T09:55:39.507Z,102476.05
2019-01-03T09:58:09.149Z,102482.73
2019-01-03T10:00:38.832Z,102475.56
2019-01-03T10:03:08.500Z,102483.50
2019-01-03T10:05:38.143Z,102482.86
2019-01-03T10:08:07.820Z,102483.09
2019-01-03T10:10:37.450Z,102480.48
2019-01-03T10:13:07.123Z,102473.59
2019-01-03T10:15:36.907Z,102477.48
2019-01-03T10:18:06.567Z,102478.81
2019-01-03T10:20:36.189Z,102483.31
2019-01-03T10:23:05.769Z,102484.39
2019-01-03T10:25:35.416Z,102471.22
2019-01-03T10:28:05.071Z,102457.08
2019-01-03T10:30:34.664Z,102463.80
2019-01-03T10:33:04.347Z,102456.87
2019-01-03T10:35:33.999Z,102451.78
2019-01-03T10:38:03.734Z,102455.41
2019-01-03T10:40:33.304Z,102447.92
2019-01-03T10:43:02.979Z,102449.66
2019-01-03T10:45:32.610Z,102450.62
2019-01-03T10:48:02.299Z,102447.24
2019-01-03T10:50:31.955Z,102443.63
2019-01-03T10:53:01.685Z,102438.77
2019-01-03T10:55:31.286Z,102435.64
2019-01-03T10:58:00.939Z,102434.06
2019-01-03T11:00:30.619Z,102427.47
2019-01-03T11:03:00.353Z,102424.62
2019-01-03T11:05:29.983Z,102424.64
2019-01-03T11:07:59.957Z,102421.02
2019-01-03T11:10:29.845Z,102411.88
2019-01-03T11:12:59.659Z,102413.64
2019-01-03T11:15:29.440Z,102411.22
2019-01-03T11:17:59.093Z,102407.62
2019-01-03T11:20:28.761Z,102400.86
2019-01-03T11:22:58.546Z,102401.53
2019-01-03T11:25:28.277Z,102392.03
2019-01-03T11:27:57.936Z,102387.20
2019-01-03T11:30:27.499Z,102395.05
2019-01-03T11:32:57.169Z,102394.77
2019-01-03T11:35:26.957Z,102392.81
2019-01-03T11:37:56.826Z,102389.79
2019-01-03T11:40:27.061Z,102390.56
2019-01-03T11:42:57.168Z,102390.62
2019-01-03T11:45:26.981Z,102375.72
2019-01-03T11:47:57.558Z,102379.44
2019-01-03T11:50:27.219Z,102379.44
2019-01-03T11:52:56.867Z,102380.52
2019-01-03T11:55:26.494Z,102383.36
2019-01-03T11:57:56.438Z,102380.98
2019-01-03T12:00:26.339Z,102388.38
2019-01-03T12:02:55.894Z,102388.38
2019-01-03T12:05:25.584Z,102384.73
2019-01-03T12:07:55.328Z,102381.94
2019-01-03T12:10:24.989Z,102383.34
2019-01-03T12:12:54.637Z,102380.61
2019-01-03T12:15:24.394Z,102380.61
2019-01-03T12:17:54.079Z,102380.59
2019-01-03T12:20:23.811Z,102379.29
2019-01-03T12:22:53.382Z,102382.10
2019-01-03T12:25:23.226Z,102382.10
2019-01-03T12:27:52.999Z,102374.53
2019-01-03T12:30:22.520Z,102383.19
2019-01-03T12:32:52.167Z,102376.92
2019-01-03T12:35:21.822Z,102385.55
2019-01-03T12:37:51.475Z,102368.73
2019-01-03T12:40:21.240Z,102368.73
2019-01-03T12:42:50.902Z,102370.46
2019-01-03T12:45:20.571Z,102370.20
2019-01-03T12:47:50.221Z,102370.20
2019-01-03T12:50:19.875Z,102365.13
2019-01-03T12:52:49.548Z,102357.89
2019-01-03T12:55:19.179Z,102363.10
2019-01-03T12:57:48.948Z,102365.22
2019-01-03T13:00:18.994Z,102368.80
2019-01-03T13:02:48.666Z,102368.80
2019-01-03T13:05:18.574Z,102377.00
2019-01-03T13:07:48.096Z,102366.65
2019-01-03T13:10:17.827Z,102369.52
2019-01-03T13:12:48.135Z,102371.56
2019-01-03T13:15:17.775Z,102376.73
2019-01-03T13:17:47.398Z,102382.90
2019-01-03T13:20:17.026Z,102384.22
2019-01-03T13:22:46.652Z,102374.70
2019-01-03T13:25:16.238Z,102375.13
2019-01-03T13:27:45.928Z,102375.39
2019-01-03T13:30:15.569Z,102369.23
2019-01-03T13:32:45.238Z,102369.23
2019-01-03T13:35:14.993Z,102370.55
2019-01-03T13:37:44.524Z,102369.63
2019-01-03T13:40:14.206Z,102369.63
2019-01-03T13:42:43.984Z,102360.04
2019-01-03T13:45:13.602Z,102365.72
2019-01-03T13:47:43.297Z,102366.01
2019-01-03T13:50:12.954Z,102355.80
2019-01-03T13:52:43.483Z,102361.37
2019-01-03T13:55:13.074Z,102366.94
2019-01-03T13:57:42.813Z,102372.42
2019-01-03T14:00:12.580Z,102375.52
2019-01-03T14:02:42.469Z,102377.53
2019-01-03T14:05:12.129Z,102377.98
2019-01-03T14:07:41.657Z,102377.98
2019-01-03T14:10:11.407Z,102378.37
2019-01-03T14:12:41.075Z,102377.96
2019-01-03T14:15:10.748Z,102379.50
2019-01-03T14:17:40.397Z,102382.68
2019-01-03T14:20:12.210Z,102375.34
2019-01-03T14:22:41.967Z,102375.34
2019-01-03T14:25:11.637Z,102383.49
2019-01-03T14:27:41.354Z,102379.45
2019-01-03T14:30:11.781Z,102384.99
2019-01-03T14:32:41.492Z,102384.53
2019-01-03T14:35:11.083Z,102389.84
2019-01-03T14:37:40.650Z,102394.05
2019-01-03T14:40:10.343Z,102390.91
2019-01-03T14:42:40.069Z,102380.12
2019-01-03T14:45:09.697Z,102388.24
2019-01-03T14:47:39.381Z,102388.24
2019-01-03T14:50:10.678Z,102389.57
2019-01-03T14:52:40.326Z,102390.03
2019-01-03T14:55:10.519Z,102387.61
2019-01-03T14:57:40.090Z,102387.61
2019-01-03T15:00:12.303Z,102385.20
2019-01-03T15:02:41.867Z,102392.09
2019-01-03T15:05:14.003Z,102398.64
2019-01-03T15:07:43.026Z,102400.56
2019-01-03T15:10:12.798Z,102392.89
2019-01-03T15:12:42.266Z,102383.16
2019-01-03T15:15:11.951Z,102378.60
2019-01-03T15:17:41.802Z,102382.22
2019-01-03T15:20:12.918Z,102386.28
2019-01-03T15:22:42.751Z,102389.17
2019-01-03T15:25:12.736Z,102389.17
2019-01-03T15:27:42.799Z,102382.86
2019-01-03T15:30:13.052Z,102380.02
2019-01-03T15:32:42.817Z,102380.02
2019-01-03T15:35:12.582Z,102374.95
2019-01-03T15:37:42.211Z,102384.95
2019-01-03T15:40:11.885Z,102384.95
2019-01-03T15:42:41.443Z,102377.34
2019-01-03T15:45:11.081Z,102385.20
2019-01-03T15:47:40.700Z,102394.16
2019-01-03T15:50:10.251Z,102392.84
2019-01-03T15:52:40.063Z,102391.39
2019-01-03T15:55:09.665Z,102394.03
2019-01-03T15:57:39.305Z,102399.27
2019-01-03T16:00:10.803Z,102389.50
2019-01-03T16:02:40.591Z,102373.81
2019-01-03T16:05:10.327Z,102373.81
2019-01-03T16:07:40.029Z,102389.97
2019-01-03T16:10:10.153Z,102398.52
2019-01-03T16:12:39.812Z,102395.95
2019-01-03T16:15:09.497Z,102399.91
2019-01-03T16:17:39.350Z,102399.91
2019-01-03T16:20:09.545Z,102403.31
2019-01-03T16:22:39.289Z,102400.91
2019-01-03T16:25:08.817Z,102394.29
2019-01-03T16:27:38.646Z,102395.33
2019-01-03T16:30:09.679Z,102401.44
2019-01-03T16:32:39.223Z,102401.93
2019-01-03T16:35:09.023Z,102405.00
2019-01-03T16:37:38.937Z,102400.33
2019-01-03T16:40:09.838Z,102400.93
2019-01-03T16:42:44.295Z,102401.25
2019-01-03T16:45:14.354Z,102400.69
2019-01-03T16:47:43.855Z,102398.34
2019-01-03T16:50:18.417Z,102392.59
2019-01-03T16:52:47.978Z,102400.69
2019-01-03T16:55:17.844Z,102400.69
2019-01-03T16:57:47.378Z,102404.13
2019-01-03T17:00:17.168Z,102403.63
2019-01-03T17:02:47.237Z,102403.63
2019-01-03T17:05:16.891Z,102401.24
2019-01-03T17:07:46.450Z,102403.42
2019-01-03T17:10:17.767Z,102404.64
2019-01-03T17:12:47.697Z,102396.14
2019-01-03T17:15:17.599Z,102383.34
2019-01-03T17:17:47.216Z,102383.34
2019-01-03T17:20:16.710Z,102378.98
2019-01-03T17:22:46.451Z,102393.31
2019-01-03T17:25:16.263Z,102393.31
2019-01-03T17:27:45.970Z,102390.48
2019-01-03T17:30:15.626Z,102395.52
2019-01-03T17:32:45.277Z,102401.56
2019-01-03T17:35:14.957Z,102396.20
2019-01-03T17:37:44.760Z,102401.90
2019-01-03T17:40:14.933Z,102400.30
2019-01-03T17:42:47.198Z,102407.59
2019-01-03T17:45:16.800Z,102413.63
2019-01-03T17:47:46.400Z,102408.20
2019-01-03T17:50:16.058Z,102416.59
2019-01-03T17:52:45.774Z,102411.98
2019-01-03T17:55:15.441Z,102406.91
2019-01-03T17:57:45.099Z,102406.91
2019-01-03T18:00:17.906Z,102410.21
2019-01-03T18:02:47.572Z,102423.13
2019-01-03T18:05:17.057Z,102422.80
2019-01-03T18:07:46.598Z,102422.80
2019-01-03T18:10:16.145Z,102428.36
2019-01-03T18:12:45.796Z,102425.92
2019-01-03T18:15:15.355Z,102423.05
2019-01-03T18:17:45.022Z,102436.50
2019-01-03T18:20:18.784Z,102436.50
2019-01-03T18:22:48.324Z,102431.80
2019-01-03T18:25:17.910Z,102436.86
2019-01-03T18:27:47.472Z,102430.55
2019-01-03T18:30:17.183Z,102429.83
2019-01-03T18:32:46.926Z,102429.83
2019-01-03T18:35:16.550Z,102433.11
2019-01-03T18:37:46.206Z,102432.04
2019-01-03T18:40:16.961Z,102432.66
2019-01-03T18:42:47.247Z,102429.36
2019-01-03T18:45:19.792Z,102429.36
2019-01-03T18:47:49.346Z,102424.92
2019-01-03T18:50:19.225Z,102432.64
2019-01-03T18:52:48.891Z,102433.80
2019-01-03T18:55:18.534Z,102433.21
2019-01-03T18:57:48.080Z,102441.11
2019-01-03T19:00:17.613Z,102432.28
2019-01-03T19:02:47.197Z,102431.23
2019-01-03T19:05:16.823Z,102436.81
2019-01-03T19:07:46.381Z,102436.81
2019-01-03T19:10:15.971Z,102439.98
2019-01-03T19:12:45.422Z,102437.70
2019-01-03T19:15:15.048Z,102432.76
2019-01-03T19:17:44.663Z,102434.67
2019-01-03T19:20:14.277Z,102422.01
2019-01-03T19:22:43.835Z,102431.38
2019-01-03T19:25:15.735Z,102426.48
2019-01-03T19:27:45.421Z,102437.13
2019-01-03T19:30:15.031Z,102430.47
2019-01-03T19:32:44.622Z,102425.50
2019-01-03T19:35:14.103Z,102420.23
2019-01-03T19:37:44.225Z,102420.23
2019-01-03T19:40:16.108Z,102419.12
2019-01-03T19:42:47.291Z,102432.77
2019-01-03T19:45:17.490Z,102438.27
2019-01-03T19:47:47.192Z,102437.41
2019-01-03T19:50:19.017Z,102437.41
2019-01-03T19:52:48.773Z,102440.25
2019-01-03T19:55:18.432Z,102442.77
2019-01-03T19:57:48.341Z,102450.66
2019-01-03T20:00:18.095Z,102460.47
2019-01-03T20:02:48.109Z,102450.73
2019-01-03T20:05:17.713Z,102449.58
2019-01-03T20:07:48.271Z,102449.58
2019-01-03T20:10:18.209Z,102447.00
2019-01-03T20:12:48.212Z,102450.11
2019-01-03T20:15:18.020Z,102438.65
2019-01-03T20:17:47.587Z,102437.19
2019-01-03T20:20:18.364Z,102435.50
2019-01-03T20:22:48.013Z,102432.24
2019-01-03T20:25:17.932Z,102426.98
2019-01-03T20:27:48.545Z,102426.02
2019-01-03T20:30:18.615Z,102418.38
2019-01-03T20:32:49.012Z,102417.52
2019-01-03T20:35:18.717Z,102404.83
2019-01-03T20:37:48.478Z,102403.90
2019-01-03T20:40:18.919Z,102408.64
2019-01-03T20:42:48.694Z,102409.81
2019-01-03T20:45:18.243Z,102415.66
2019-01-03T20:47:48.941Z,102414.94
2019-01-03T20:50:18.633Z,102419.89
2019-01-03T20:52:49.007Z,102423.81
2019-01-03T20:55:18.773Z,102427.98
2019-01-03T20:57:48.520Z,102429.27
2019-01-03T21:00:18.623Z,102423.44
2019-01-03T21:02:48.860Z,102427.13
2019-01-03T21:05:19.861Z,102432.34
2019-01-03T21:07:49.409Z,102442.97
2019-01-03T21:10:19.503Z,102444.16
2019-01-03T21:12:49.854Z,102442.05
2019-01-03T21:15:21.572Z,102434.48
2019-01-03T21:17:51.024Z,102424.13
2019-01-03T21:20:20.632Z,102424.62
2019-01-03T21:22:50.129Z,102415.30
2019-01-03T21:25:19.736Z,102418.67
2019-01-03T21:27:49.476Z,102419.13
2019-01-03T21:30:20.206Z,102412.69
2019-01-03T21:32:50.109Z,102415.02
2019-01-03T21:35:19.762Z,102421.34
2019-01-03T21:37:49.285Z,102414.38
2019-01-03T21:40:18.921Z,102418.55
2019-01-03T21:42:48.447Z,102417.75
2019-01-03T21:45:18.019Z,102405.34
2019-01-03T21:47:47.540Z,102407.52
2019-01-03T21:50:17.113Z,102399.50
2019-01-03T21:52:46.805Z,102388.63
2019-01-03T21:55:16.474Z,102398.16
2019-01-03T21:57:46.117Z,102402.81
2019-01-03T22:00:15.641Z,102393.53
2019-01-03T22:02:45.192Z,102401.97
2019-01-03T22:05:14.849Z,102391.42
2019-01-03T22:07:44.441Z,102387.84
2019-01-03T22:10:14.368Z,102383.63
2019-01-03T22:12:44.153Z,102391.69
2019-01-03T22:15:13.821Z,102389.63
2019-01-03T22:17:43.546Z,102395.63
2019-01-03T22:20:13.117Z,102402.48
2019-01-03T22:22:42.662Z,102403.66
2019-01-03T22:25:12.791Z,102414.86
2019-01-03T22:27:42.540Z,102418.12
2019-01-03T22:30:12.700Z,102413.45
2019-01-03T22:32:42.522Z,102431.50
2019-01-03T22:35:12.182Z,102427.17
2019-01-03T22:37:41.749Z,102437.56
2019-01-03T22:40:11.348Z,102427.79
2019-01-03T22:42:41.005Z,102437.05
2019-01-03T22:45:12.097Z,102438.42
2019-01-03T22:47:41.887Z,102443.87
2019-01-03T22:50:11.706Z,102435.66
2019-01-03T22:52:41.331Z,102447.56
2019-01-03T22:55:10.966Z,102453.81
2019-01-03T22:57:40.725Z,102455.78
2019-01-03T23:00:25.341Z,102461.26
2019-01-03T23:02:55.048Z,102456.98
2019-01-03T23:05:24.675Z,102450.25
2019-01-03T23:07:54.220Z,102459.17
2019-01-03T23:10:23.779Z,102469.22
2019-01-03T23:12:53.416Z,102469.16
2019-01-03T23:15:22.980Z,102469.98
2019-01-03T23:17:52.718Z,102472.52
2019-01-03T23:20:22.294Z,102477.95
2019-01-03T23:22:52.195Z,102473.83
2019-01-03T23:25:21.831Z,102487.14
2019-01-03T23:27:51.389Z,102484.05
2019-01-03T23:30:21.016Z,102482.13
2019-01-03T23:32:50.718Z,102486.55
2019-01-03T23:35:20.470Z,102482.42
2019-01-03T23:37:49.923Z,102483.78
2019-01-03T23:40:19.655Z,102486.64
2019-01-03T23:42:49.335Z,102480.45
2019-01-03T23:45:20.716Z,102483.13
2019-01-03T23:47:52.468Z,102478.91
2019-01-03T23:50:24.658Z,102473.08
2019-01-03T23:52:54.354Z,102483.84
2019-01-03T23:55:24.128Z,102478.72
2019-01-03T23:57:53.961Z,102485.17
